Time;durP1;ratioP1;P1;durP2;ratioP2;P2;SDS_P1;SDS_P2;PMS_P1;PMS_P2;Temp;Humidity;BMP_temperature;BMP_pressure;BME280_temperature;BME280_humidity;BME280_pressure;Samples;Min_cycle;Max_cycle;Signal;HPM_P1;HPM_P2
2023/10/12 00:02:50;;;;;;;2.10;1.27;;;24.70;32.20;;;;;;5072335;28;20449;-53
2023/10/12 00:05:19;;;;;;;1.53;1.07;;;24.70;33.00;;;;;;5072608;28;20422;-50
2023/10/12 00:07:49;;;;;;;2.33;0.97;;;24.70;32.60;;;;;;5071964;28;20454;-51
2023/10/12 00:12:50;;;;;;;1.90;1.23;;;24.70;32.90;;;;;;5072484;28;20414;-50
2023/10/12 00:17:47;;;;;;;1.50;0.93;;;24.70;33.10;;;;;;5071966;28;20426;-50
2023/10/12 00:20:24;;;;;;;1.20;0.80;;;24.70;33.20;;;;;;5072400;28;20410;-50
2023/10/12 00:22:49;;;;;;;1.60;0.90;;;24.60;33.80;;;;;;5072452;28;20778;-52
2023/10/12 00:25:18;;;;;;;1.50;1.10;;;24.60;33.60;;;;;;5072342;28;20418;-51
2023/10/12 00:27:44;;;;;;;2.40;1.07;;;24.50;33.60;;;;;;5071710;28;20243;-50
2023/10/12 00:30:12;;;;;;;3.80;1.10;;;24.50;34.10;;;;;;5071667;28;20489;-52
2023/10/12 00:32:38;;;;;;;2.03;0.93;;;24.40;33.90;;;;;;5072022;28;20180;-49
2023/10/12 00:35:04;;;;;;;2.40;1.40;;;24.30;34.70;;;;;;5071875;28;20862;-52
2023/10/12 00:37:32;;;;;;;3.27;2.10;;;24.30;34.20;;;;;;5071730;28;20523;-49
2023/10/12 00:39:58;;;;;;;2.00;1.43;;;24.30;33.90;;;;;;5071775;28;20433;-50
2023/10/12 00:42:34;;;;;;;1.90;1.37;;;24.20;34.00;;;;;;5071541;28;20893;-51
2023/10/12 00:45:11;;;;;;;3.53;2.03;;;24.30;34.20;;;;;;5071518;28;20908;-48
2023/10/12 00:47:44;;;;;;;1.77;1.13;;;24.20;34.10;;;;;;5071389;28;20458;-52
2023/10/12 00:50:11;;;;;;;2.80;1.47;;;24.20;34.00;;;;;;5059757;28;20422;-51
2023/10/12 00:52:55;;;;;;;1.50;0.80;;;24.20;34.00;;;;;;5057561;28;20549;-52
2023/10/12 00:55:37;;;;;;;1.10;0.60;;;24.20;33.90;;;;;;5063471;28;20896;-49
2023/10/12 00:58:08;;;;;;;1.47;1.10;;;24.10;33.60;;;;;;5071889;28;20494;-50
2023/10/12 01:00:43;;;;;;;1.40;0.87;;;24.20;34.10;;;;;;5071956;28;20406;-49
2023/10/12 01:03:35;;;;;;;1.20;0.77;;;24.20;33.90;;;;;;5071798;28;20774;-52
2023/10/12 01:08:35;;;;;;;2.50;1.57;;;24.20;33.50;;;;;;5071806;28;20458;-51
2023/10/12 01:11:07;;;;;;;4.43;2.33;;;24.20;33.30;;;;;;5071801;28;20898;-48
2023/10/12 01:13:34;;;;;;;2.07;1.00;;;24.30;33.70;;;;;;5071697;28;20398;-52
2023/10/12 01:18:45;;;;;;;2.53;1.57;;;24.30;33.50;;;;;;5072023;28;20405;-48
2023/10/12 01:21:13;;;;;;;1.40;1.00;;;24.30;33.70;;;;;;5071593;28;20502;-51
2023/10/12 01:23:50;;;;;;;1.60;1.00;;;24.30;33.90;;;;;;5071680;28;20176;-48
2023/10/12 01:26:17;;;;;;;5.00;1.77;;;24.30;33.50;;;;;;5071235;28;20817;-51
2023/10/12 01:28:48;;;;;;;1.50;0.63;;;24.40;33.70;;;;;;5071194;28;20869;-51
2023/10/12 01:31:16;;;;;;;1.20;0.87;;;24.40;34.00;;;;;;5071396;28;20410;-48
2023/10/12 01:33:41;;;;;;;2.33;1.43;;;24.40;34.00;;;;;;5071273;28;20490;-51
2023/10/12 01:36:07;;;;;;;2.90;1.33;;;24.40;33.60;;;;;;5071034;28;21057;-48
2023/10/12 01:38:37;;;;;;;2.03;1.13;;;24.40;34.00;;;;;;5071360;28;20177;-48
2023/10/12 01:41:09;;;;;;;1.63;1.00;;;24.40;34.00;;;;;;5071350;28;20411;-51
2023/10/12 01:43:36;;;;;;;1.67;1.37;;;24.40;33.90;;;;;;5071470;28;20886;-48
2023/10/12 01:46:08;;;;;;;1.70;1.17;;;24.50;33.60;;;;;;5070767;28;20442;-48
2023/10/12 01:48:34;;;;;;;1.83;0.87;;;24.50;33.90;;;;;;5070995;28;20883;-51
2023/10/12 01:51:14;;;;;;;1.57;1.43;;;24.50;34.00;;;;;;5071068;28;20406;-51
2023/10/12 01:53:40;;;;;;;2.83;1.30;;;24.50;34.00;;;;;;5069626;28;20588;-51
2023/10/12 01:56:12;;;;;;;1.10;0.70;;;24.50;34.00;;;;;;5070845;28;20912;-51
2023/10/12 01:58:44;;;;;;;1.50;0.90;;;24.50;34.20;;;;;;5071307;28;20736;-51
2023/10/12 02:01:18;;;;;;;2.43;1.10;;;24.50;34.40;;;;;;5072138;28;20414;-50
2023/10/12 02:03:44;;;;;;;2.80;0.97;;;24.50;34.40;;;;;;5074875;28;20763;-51
2023/10/12 02:06:16;;;;;;;5.07;1.10;;;24.40;34.50;;;;;;5074897;28;20426;-51
2023/10/12 02:08:46;;;;;;;1.83;1.17;;;24.40;34.50;;;;;;5075034;28;20458;-52
2023/10/12 02:13:42;;;;;;;6.40;1.30;;;24.30;34.40;;;;;;5074929;28;20402;-50
2023/10/12 02:16:12;;;;;;;3.10;1.67;;;24.40;34.70;;;;;;5074546;28;20454;-52
2023/10/12 02:18:38;;;;;;;3.13;1.10;;;24.30;34.40;;;;;;5074974;28;20498;-49
2023/10/12 02:23:53;;;;;;;2.40;1.03;;;24.30;34.50;;;;;;5074687;28;20413;-49
2023/10/12 02:26:32;;;;;;;2.90;1.40;;;24.30;34.70;;;;;;5074412;28;20433;-49
2023/10/12 02:29:41;;;;;;;6.83;2.30;;;24.30;34.80;;;;;;5074507;28;20473;-51
2023/10/12 02:34:31;;;;;;;3.17;1.20;;;24.20;34.90;;;;;;5074458;28;20399;-51
2023/10/12 02:39:41;;;;;;;2.20;1.10;;;24.20;35.00;;;;;;5074649;28;20402;-51
2023/10/12 02:42:17;;;;;;;2.73;1.20;;;24.20;35.10;;;;;;5074486;28;20426;-48
2023/10/12 02:47:23;;;;;;;2.70;1.50;;;24.20;35.60;;;;;;5073968;28;20459;-48
2023/10/12 02:50:00;;;;;;;1.57;0.77;;;24.20;35.50;;;;;;5074482;28;20398;-51
2023/10/12 02:52:32;;;;;;;2.13;1.43;;;24.20;35.10;;;;;;5074340;28;20414;-51
2023/10/12 02:55:07;;;;;;;2.03;1.23;;;24.10;35.20;;;;;;5074092;28;20460;-49
2023/10/12 02:57:33;;;;;;;4.03;1.60;;;24.20;35.60;;;;;;5073698;28;20430;-48
2023/10/12 03:02:34;;;;;;;2.17;1.17;;;24.10;35.30;;;;;;5074218;28;20430;-49
2023/10/12 03:05:06;;;;;;;1.30;0.73;;;24.10;35.50;;;;;;5074055;28;20438;-51
2023/10/12 03:07:37;;;;;;;2.07;1.27;;;24.10;35.30;;;;;;5073424;28;20874;-48
2023/10/12 03:10:07;;;;;;;1.70;0.83;;;24.20;35.50;;;;;;5073874;28;20410;-49
2023/10/12 03:12:41;;;;;;;2.00;0.87;;;24.10;35.00;;;;;;5105796;28;20411;-51
2023/10/12 03:15:14;;;;;;;1.70;1.23;;;24.10;35.20;;;;;;5073664;28;20933;-50
2023/10/12 03:17:54;;;;;;;1.60;1.20;;;24.10;35.10;;;;;;5073599;28;20469;-51
2023/10/12 03:20:22;;;;;;;1.63;0.80;;;24.10;35.30;;;;;;5073733;28;20407;-52
2023/10/12 03:22:58;;;;;;;2.53;1.33;;;24.20;35.30;;;;;;5073479;28;20464;-49
2023/10/12 03:25:42;;;;;;;3.40;2.33;;;24.20;35.50;;;;;;5073411;28;20917;-50
2023/10/12 03:28:12;;;;;;;1.20;0.67;;;24.10;35.50;;;;;;5073590;28;20667;-51
2023/10/12 03:30:45;;;;;;;4.13;2.13;;;24.10;35.40;;;;;;5073291;28;20929;-51
2023/10/12 03:33:15;;;;;;;2.77;1.80;;;24.10;35.30;;;;;;5073311;28;20873;-50
2023/10/12 03:35:53;;;;;;;3.07;1.10;;;24.20;35.30;;;;;;5073180;28;20418;-48
2023/10/12 03:38:19;;;;;;;4.20;1.50;;;24.20;35.40;;;;;;5073355;28;20414;-50
2023/10/12 03:40:50;;;;;;;3.67;1.97;;;24.20;35.30;;;;;;5073134;28;20925;-51
2023/10/12 03:43:28;;;;;;;1.20;0.80;;;24.20;35.40;;;;;;5073253;28;20402;-48
2023/10/12 03:53:56;;;;;;;2.40;1.20;;;24.20;35.50;;;;;;5073033;28;20813;-51
2023/10/12 03:56:23;;;;;;;2.17;1.20;;;24.10;35.50;;;;;;5072368;28;20958;-49
2023/10/12 03:58:59;;;;;;;1.83;1.23;;;24.10;35.60;;;;;;5072961;28;20498;-50
2023/10/12 04:01:31;;;;;;;9.83;1.80;;;24.10;35.70;;;;;;5072887;28;20430;-50
2023/10/12 04:04:21;;;;;;;6.50;1.33;;;24.10;35.60;;;;;;5072808;28;20409;-51
2023/10/12 04:07:04;;;;;;;1.73;1.50;;;24.10;35.60;;;;;;5072312;28;20422;-51
2023/10/12 04:09:43;;;;;;;1.87;0.90;;;24.10;35.80;;;;;;5072807;28;20398;-51
2023/10/12 04:14:54;;;;;;;5.50;2.10;;;24.10;36.00;;;;;;5072527;28;20920;-50
2023/10/12 04:22:41;;;;;;;2.03;1.47;;;24.00;35.80;;;;;;5072560;28;20912;-50
2023/10/12 04:28:03;;;;;;;2.70;1.13;;;24.00;35.80;;;;;;5072205;28;20615;-49
2023/10/12 04:30:42;;;;;;;3.03;0.93;;;23.90;36.00;;;;;;5072260;28;20877;-49
2023/10/12 04:33:15;;;;;;;2.20;1.40;;;23.90;36.00;;;;;;5072237;28;20947;-50
2023/10/12 04:43:40;;;;;;;3.60;1.37;;;23.90;36.40;;;;;;5072148;28;20406;-50
2023/10/12 04:48:43;;;;;;;1.60;1.20;;;23.80;36.80;;;;;;5072207;28;20659;-53
2023/10/12 04:51:19;;;;;;;3.20;1.83;;;23.80;36.80;;;;;;5072113;28;20788;-48
2023/10/12 04:59:42;;;;;;;1.87;1.40;;;23.70;36.80;;;;;;5072189;28;20410;-50
2023/10/12 05:09:50;;;;;;;4.30;1.63;;;23.50;37.10;;;;;;5071999;28;20895;-49
2023/10/12 05:12:28;;;;;;;1.73;1.10;;;23.50;37.10;;;;;;5071928;28;20177;-51
2023/10/12 05:15:00;;;;;;;7.10;1.60;;;23.50;37.10;;;;;;5071823;28;20398;-49
2023/10/12 05:17:27;;;;;;;1.20;0.87;;;23.40;37.10;;;;;;5071336;28;20436;-50
2023/10/12 05:19:53;;;;;;;1.77;0.87;;;23.30;37.30;;;;;;5071735;28;20417;-51
2023/10/12 05:22:20;;;;;;;2.17;1.43;;;23.30;37.50;;;;;;5071590;28;21129;-48
2023/10/12 05:24:49;;;;;;;2.73;0.90;;;23.30;37.50;;;;;;5071715;28;20487;-49
2023/10/12 05:27:28;;;;;;;1.77;1.03;;;23.30;38.00;;;;;;5071244;28;20431;-51
2023/10/12 05:30:05;;;;;;;2.33;1.37;;;23.20;37.70;;;;;;5071633;28;20409;-49
2023/10/12 05:32:42;;;;;;;2.17;0.97;;;23.20;37.80;;;;;;5071562;28;20398;-51
2023/10/12 05:35:18;;;;;;;1.37;1.03;;;23.20;37.90;;;;;;5070606;28;20406;-51
2023/10/12 05:37:49;;;;;;;2.30;1.30;;;23.10;38.00;;;;;;5074723;28;20453;-53
2023/10/12 05:40:18;;;;;;;3.83;1.60;;;23.10;38.00;;;;;;5075453;28;20482;-48
2023/10/12 05:42:46;;;;;;;3.80;2.00;;;23.20;38.10;;;;;;5075624;28;20771;-49
2023/10/12 05:45:27;;;;;;;2.30;2.10;;;23.10;38.10;;;;;;5075504;28;20430;-52
2023/10/12 05:47:53;;;;;;;2.53;1.53;;;23.20;38.40;;;;;;5075054;28;21023;-48
2023/10/12 05:50:25;;;;;;;3.77;1.63;;;23.20;38.30;;;;;;5075446;28;20411;-48
2023/10/12 05:52:52;;;;;;;1.90;1.40;;;23.20;38.20;;;;;;5075072;28;20177;-48
2023/10/12 05:55:21;;;;;;;4.07;1.30;;;23.10;38.10;;;;;;5074916;28;20410;-49
2023/10/12 05:57:48;;;;;;;2.20;1.20;;;23.20;38.60;;;;;;5075097;28;20431;-50
2023/10/12 06:02:59;;;;;;;1.73;1.33;;;23.10;38.50;;;;;;5075318;28;20431;-48
2023/10/12 06:05:24;;;;;;;2.20;2.00;;;23.10;39.00;;;;;;5074749;28;20906;-50
2023/10/12 06:07:50;;;;;;;1.47;0.90;;;23.10;38.80;;;;;;5074567;28;20253;-49
2023/10/12 06:10:16;;;;;;;3.20;1.47;;;23.00;38.60;;;;;;5074990;28;20173;-53
2023/10/12 06:12:42;;;;;;;3.10;1.40;;;23.10;38.80;;;;;;5074812;28;20257;-49
2023/10/12 06:15:10;;;;;;;2.30;1.77;;;23.10;38.80;;;;;;5074898;28;20747;-50
2023/10/12 06:17:39;;;;;;;4.23;1.70;;;23.00;38.80;;;;;;5074553;28;20431;-48
2023/10/12 06:20:14;;;;;;;1.60;1.10;;;23.00;38.80;;;;;;5074637;28;20517;-49
2023/10/12 06:22:40;;;;;;;1.90;1.10;;;23.10;38.90;;;;;;5074840;28;21172;-50
2023/10/12 06:25:11;;;;;;;5.80;1.90;;;23.10;39.40;;;;;;5074639;28;20494;-49
2023/10/12 06:27:37;;;;;;;2.13;0.97;;;23.10;38.80;;;;;;5074387;28;20209;-50
2023/10/12 06:30:16;;;;;;;6.80;2.00;;;23.10;38.90;;;;;;5074486;28;20412;-52
2023/10/12 06:32:42;;;;;;;1.63;1.00;;;23.20;38.80;;;;;;5074469;28;20423;-50
2023/10/12 06:45:55;;;;;;;1.83;1.63;;;23.30;39.80;;;;;;5074291;28;20418;-49
2023/10/12 06:53:34;;;;;;;2.23;1.33;;;23.40;39.10;;;;;;5074086;28;20402;-49
2023/10/12 06:56:15;;;;;;;3.00;1.60;;;23.40;39.30;;;;;;5073708;28;20462;-49
2023/10/12 07:04:15;;;;;;;2.13;1.63;;;23.40;40.20;;;;;;5073985;28;20837;-49
2023/10/12 07:06:59;;;;;;;3.40;1.90;;;23.40;41.50;;;;;;5073728;28;20444;-50
2023/10/12 07:09:42;;;;;;;1.40;1.17;;;23.30;41.40;;;;;;5073793;28;20853;-51
2023/10/12 07:12:18;;;;;;;1.73;1.40;;;23.20;41.70;;;;;;5073756;28;20494;-52
2023/10/12 07:14:47;;;;;;;2.70;1.10;;;23.10;42.20;;;;;;5073736;28;20406;-48
2023/10/12 07:17:14;;;;;;;2.90;1.73;;;23.00;43.30;;;;;;5073547;28;20437;-49
2023/10/12 07:19:50;;;;;;;7.63;1.40;;;22.90;42.60;;;;;;5073548;28;20899;-50
2023/10/12 07:22:16;;;;;;;3.07;1.97;;;22.90;43.40;;;;;;5073573;28;20407;-51
2023/10/12 07:24:42;;;;;;;2.03;1.53;;;22.80;43.00;;;;;;5073470;28;20498;-49
2023/10/12 07:27:13;;;;;;;2.17;1.53;;;22.80;44.70;;;;;;5073207;28;20730;-53
2023/10/12 07:30:02;;;;;;;2.40;2.20;;;22.70;43.70;;;;;;5073603;28;20503;-50
2023/10/12 07:34:58;;;;;;;2.13;1.20;;;22.60;43.80;;;;;;5073232;28;20394;-52
2023/10/12 07:37:27;;;;;;;3.53;1.90;;;22.70;44.60;;;;;;5072918;28;20411;-49
2023/10/12 07:39:56;;;;;;;1.60;0.93;;;22.60;44.80;;;;;;5073170;28;20483;-49
2023/10/12 07:42:27;;;;;;;3.57;2.50;;;22.60;44.50;;;;;;5073110;28;20389;-50
2023/10/12 07:44:54;;;;;;;1.87;0.93;;;22.60;44.70;;;;;;5073201;28;20434;-49
2023/10/12 07:47:31;;;;;;;2.60;1.23;;;22.60;44.90;;;;;;5072639;28;20407;-52
2023/10/12 07:50:23;;;;;;;1.60;1.03;;;22.60;45.60;;;;;;5073241;28;20411;-48
2023/10/12 07:52:49;;;;;;;2.00;1.53;;;22.50;46.20;;;;;;5073044;28;20431;-50
2023/10/12 07:55:17;;;;;;;7.33;1.67;;;22.40;46.00;;;;;;5072768;28;20894;-49
2023/10/12 07:57:44;;;;;;;4.53;2.63;;;22.50;45.80;;;;;;5072668;28;20450;-50
2023/10/12 08:05:24;;;;;;;3.53;2.10;;;22.40;46.60;;;;;;5072674;28;20399;-53
2023/10/12 08:08:40;;;;;;;6.00;1.83;;;22.40;46.70;;;;;;5072322;28;20533;-51
2023/10/12 08:13:16;;;;;;;1.70;0.90;;;22.30;46.60;;;;;;5072591;28;20434;-51
2023/10/12 08:15:49;;;;;;;1.63;1.17;;;22.30;46.20;;;;;;5072494;28;20260;-49
2023/10/12 08:21:01;;;;;;;2.97;1.83;;;22.30;46.30;;;;;;5072696;28;20442;-49
2023/10/12 08:23:27;;;;;;;1.30;1.20;;;22.30;46.80;;;;;;5072449;28;20406;-51
2023/10/12 08:25:57;;;;;;;1.90;1.20;;;22.30;47.30;;;;;;5072229;28;20407;-51
2023/10/12 08:28:25;;;;;;;2.60;1.50;;;22.20;47.10;;;;;;5072230;28;21003;-51
2023/10/12 08:31:01;;;;;;;3.40;1.20;;;22.20;46.80;;;;;;5072328;28;20418;-51
2023/10/12 08:38:40;;;;;;;3.63;1.93;;;22.30;47.10;;;;;;5072312;28;20411;-49
2023/10/12 08:41:20;;;;;;;3.40;1.60;;;22.30;47.60;;;;;;5072108;28;20407;-48
2023/10/12 08:43:52;;;;;;;4.50;1.47;;;22.30;47.10;;;;;;5072083;28;20176;-49
2023/10/12 08:46:51;;;;;;;3.83;2.57;;;22.30;48.40;;;;;;5072066;28;20435;-49
2023/10/12 08:52:18;;;;;;;4.80;1.17;;;22.40;47.60;;;;;;5072325;28;20785;-48
2023/10/12 08:54:53;;;;;;;2.83;2.10;;;22.40;48.00;;;;;;5072169;28;20431;-49
2023/10/12 08:57:38;;;;;;;2.23;1.50;;;22.40;48.40;;;;;;5071640;28;20452;-49
2023/10/12 09:06:19;;;;;;;2.53;1.70;;;22.40;48.90;;;;;;5049231;28;20814;-50
2023/10/12 09:11:13;;;;;;;3.40;1.50;;;22.40;49.00;;;;;;5048838;28;20951;-53
2023/10/12 09:13:47;;;;;;;1.87;0.97;;;22.40;48.70;;;;;;5049428;28;20517;-50
2023/10/12 09:16:15;;;;;;;2.53;1.30;;;22.30;48.30;;;;;;5049104;28;20990;-53
2023/10/12 09:23:50;;;;;;;1.80;1.37;;;22.30;48.30;;;;;;5049322;28;20408;-52
2023/10/12 09:26:30;;;;;;;3.33;1.60;;;22.30;48.10;;;;;;5048957;28;20435;-50
2023/10/12 09:36:38;;;;;;;2.03;1.80;;;22.30;48.40;;;;;;5054865;28;20442;-50
2023/10/12 09:39:14;;;;;;;1.87;1.57;;;22.30;48.80;;;;;;5071500;28;20851;-50
2023/10/12 09:41:44;;;;;;;3.77;2.07;;;22.30;48.70;;;;;;5071438;28;20471;-52
2023/10/12 09:44:12;;;;;;;3.47;1.33;;;22.20;49.70;;;;;;5071426;28;20492;-49
2023/10/12 09:46:46;;;;;;;7.30;1.60;;;22.20;49.10;;;;;;5071167;28;20462;-50
2023/10/12 09:49:24;;;;;;;4.07;2.20;;;22.10;49.50;;;;;;5071524;28;20458;-52
2023/10/12 09:51:57;;;;;;;2.30;1.80;;;22.20;49.10;;;;;;5071445;28;20398;-52
2023/10/12 09:54:28;;;;;;;3.20;1.23;;;22.20;48.90;;;;;;5071443;28;20417;-49
2023/10/12 09:57:00;;;;;;;2.93;1.57;;;22.10;49.10;;;;;;5070972;28;20546;-51
2023/10/12 09:59:29;;;;;;;2.53;1.70;;;22.10;49.00;;;;;;5071580;28;20431;-50
2023/10/12 10:02:07;;;;;;;3.40;1.20;;;22.10;49.30;;;;;;5071446;28;20415;-50
2023/10/12 10:04:41;;;;;;;3.33;1.43;;;22.10;49.10;;;;;;5071340;28;20985;-51
2023/10/12 10:07:24;;;;;;;6.17;1.73;;;22.10;48.90;;;;;;5070926;28;20423;-51
2023/10/12 10:09:56;;;;;;;1.60;0.93;;;22.10;48.90;;;;;;5071362;28;20945;-51
2023/10/12 10:12:24;;;;;;;1.30;0.80;;;22.10;48.70;;;;;;5071367;28;20399;-51
2023/10/12 10:14:54;;;;;;;1.53;1.07;;;22.00;48.30;;;;;;5071232;28;20410;-49
2023/10/12 10:17:24;;;;;;;2.27;1.57;;;22.10;48.90;;;;;;5070840;28;20433;-49
2023/10/12 10:22:58;;;;;;;2.83;1.57;;;22.10;47.50;;;;;;5009332;28;20917;-48
2023/10/12 10:25:35;;;;;;;6.93;2.50;;;22.00;47.40;;;;;;5012641;28;20417;-52
2023/10/12 10:28:07;;;;;;;3.20;1.80;;;22.00;47.50;;;;;;5012354;28;20456;-50
2023/10/12 10:30:41;;;;;;;3.03;1.07;;;22.00;47.80;;;;;;5012474;28;20414;-51
2023/10/12 10:33:17;;;;;;;1.83;1.00;;;22.00;47.60;;;;;;5012475;28;20556;-49
2023/10/12 10:36:09;;;;;;;1.30;0.77;;;22.00;47.10;;;;;;5012150;28;20496;-51
2023/10/12 10:38:39;;;;;;;2.30;1.17;;;22.10;47.10;;;;;;5012285;28;20515;-54
2023/10/12 10:41:22;;;;;;;1.47;1.00;;;22.10;47.50;;;;;;5012443;28;20445;-49
2023/10/12 10:43:51;;;;;;;11.03;1.30;;;22.10;47.20;;;;;;5012234;28;20416;-51
2023/10/12 10:46:17;;;;;;;1.27;0.97;;;22.20;47.10;;;;;;5011788;28;20933;-52
2023/10/12 10:48:50;;;;;;;2.07;1.70;;;22.20;46.90;;;;;;5011983;28;20456;-51
2023/10/12 10:51:24;;;;;;;1.30;0.63;;;22.30;47.70;;;;;;5012202;28;20530;-48
2023/10/12 10:53:52;;;;;;;1.83;0.80;;;22.30;46.60;;;;;;5012146;28;20465;-49
2023/10/12 10:56:32;;;;;;;1.60;1.00;;;22.30;46.60;;;;;;5011630;28;20540;-51
2023/10/12 10:58:59;;;;;;;1.87;0.97;;;22.40;46.30;;;;;;5058093;28;20914;-53
2023/10/12 11:01:26;;;;;;;2.00;0.73;;;22.40;46.10;;;;;;5073874;28;20419;-49
2023/10/12 11:03:52;;;;;;;2.43;1.43;;;22.40;46.30;;;;;;5074104;28;20465;-50
2023/10/12 11:06:21;;;;;;;1.40;0.80;;;22.50;46.10;;;;;;5073670;28;20975;-51
2023/10/12 11:09:13;;;;;;;1.33;0.63;;;22.40;45.60;;;;;;5073738;28;20461;-49
2023/10/12 11:11:37;;;;;;;1.20;0.70;;;22.40;46.00;;;;;;5073594;28;20411;-49
2023/10/12 11:14:10;;;;;;;2.33;1.30;;;22.40;46.10;;;;;;5073927;28;20414;-54
2023/10/12 11:16:37;;;;;;;1.40;0.90;;;22.50;46.10;;;;;;5072373;28;20461;-52
2023/10/12 11:19:08;;;;;;;3.70;1.23;;;22.50;46.00;;;;;;5072616;28;20410;-49
2023/10/12 11:21:34;;;;;;;1.77;0.83;;;22.40;45.80;;;;;;5073602;28;20986;-53
2023/10/12 11:24:02;;;;;;;1.43;0.93;;;22.40;45.60;;;;;;5073439;28;20465;-51
2023/10/12 11:26:39;;;;;;;1.83;1.07;;;22.40;45.70;;;;;;5073304;28;20485;-50
2023/10/12 11:29:11;;;;;;;2.03;1.27;;;22.40;45.70;;;;;;5073618;28;20493;-50
2023/10/12 11:31:37;;;;;;;1.33;0.80;;;22.40;46.30;;;;;;5073343;28;20490;-49
2023/10/12 11:34:12;;;;;;;1.40;0.90;;;22.40;45.80;;;;;;5072895;28;20445;-49
2023/10/12 11:36:38;;;;;;;1.20;0.80;;;22.40;46.00;;;;;;5072966;28;20454;-51
2023/10/12 11:39:16;;;;;;;1.47;0.87;;;22.40;46.30;;;;;;5073332;28;20414;-49
2023/10/12 11:42:06;;;;;;;2.47;1.53;;;22.80;46.20;;;;;;5073411;28;20411;-50
2023/10/12 11:44:36;;;;;;;1.93;1.03;;;22.30;46.10;;;;;;5073162;28;20407;-52
2023/10/12 11:47:07;;;;;;;1.40;0.77;;;22.30;46.20;;;;;;5072757;28;20430;-50
2023/10/12 11:49:58;;;;;;;3.90;2.10;;;22.30;46.30;;;;;;5073185;28;20527;-53
2023/10/12 11:52:32;;;;;;;2.70;1.50;;;22.30;46.30;;;;;;5073093;28;20793;-50
2023/10/12 11:55:18;;;;;;;2.70;1.40;;;22.30;46.10;;;;;;5073106;28;20418;-49
2023/10/12 11:57:58;;;;;;;2.80;1.30;;;22.30;46.60;;;;;;5072622;28;20436;-52
2023/10/12 12:00:36;;;;;;;2.17;1.07;;;22.10;46.40;;;;;;5072765;28;20407;-49
2023/10/12 12:03:03;;;;;;;1.60;0.97;;;22.10;46.70;;;;;;5072826;28;20409;-52
2023/10/12 12:05:40;;;;;;;3.70;1.53;;;22.10;46.70;;;;;;5072720;28;20413;-52
2023/10/12 12:08:18;;;;;;;4.30;1.83;;;22.10;47.00;;;;;;5072588;28;20977;-52
2023/10/12 12:13:20;;;;;;;1.30;1.00;;;22.20;46.40;;;;;;5072828;28;20410;-48
2023/10/12 12:15:46;;;;;;;2.33;1.40;;;20.90;46.20;;;;;;5072235;28;20402;-50
2023/10/12 12:18:20;;;;;;;2.43;1.13;;;22.10;46.70;;;;;;5072504;28;20419;-48
2023/10/12 12:20:52;;;;;;;1.20;0.80;;;22.10;46.70;;;;;;5072459;28;20502;-48
2023/10/12 12:23:18;;;;;;;1.50;0.90;;;22.10;46.70;;;;;;5072437;28;20414;-53
2023/10/12 12:25:44;;;;;;;3.63;2.23;;;22.10;47.00;;;;;;5072111;28;20407;-50
2023/10/12 12:28:14;;;;;;;1.67;1.40;;;22.10;46.70;;;;;;5072295;28;21023;-52
2023/10/12 12:30:51;;;;;;;2.83;1.70;;;22.10;46.40;;;;;;5072298;28;20174;-49
2023/10/12 12:33:17;;;;;;;2.13;1.70;;;22.10;46.50;;;;;;5072492;28;20414;-50
2023/10/12 12:35:59;;;;;;;2.90;1.10;;;22.20;46.70;;;;;;5072130;28;20435;-53
2023/10/12 12:38:40;;;;;;;1.57;1.13;;;22.10;46.90;;;;;;5072275;28;20422;-49
2023/10/12 12:41:18;;;;;;;1.40;1.00;;;22.10;46.50;;;;;;5072170;28;20619;-49
2023/10/12 12:43:47;;;;;;;2.57;1.70;;;22.10;46.90;;;;;;5072278;28;20433;-49
2023/10/12 12:46:13;;;;;;;1.70;0.83;;;22.10;46.50;;;;;;5071036;28;20517;-48
2023/10/12 12:48:39;;;;;;;1.83;0.90;;;21.90;46.70;;;;;;5072225;28;20853;-51
2023/10/12 12:51:11;;;;;;;3.33;1.00;;;22.00;47.60;;;;;;5072009;28;20459;-51
2023/10/12 12:53:38;;;;;;;1.57;1.00;;;21.90;47.10;;;;;;5071990;28;20407;-51
2023/10/12 12:56:05;;;;;;;1.63;1.00;;;22.00;47.90;;;;;;5071624;28;20461;-51
2023/10/12 12:58:32;;;;;;;1.43;0.83;;;22.00;47.60;;;;;;5072071;28;20418;-51
2023/10/12 13:01:00;;;;;;;2.70;1.10;;;22.00;47.40;;;;;;5072055;28;20407;-52
2023/10/12 13:03:28;;;;;;;4.10;1.60;;;22.00;47.40;;;;;;5071880;28;20418;-49
2023/10/12 13:05:54;;;;;;;1.80;0.90;;;22.00;47.10;;;;;;5071504;28;20818;-52
2023/10/12 13:08:20;;;;;;;1.43;0.73;;;21.90;47.60;;;;;;5071549;28;20450;-51
2023/10/12 13:10:46;;;;;;;1.53;1.10;;;21.90;47.30;;;;;;5071783;28;20418;-50
2023/10/12 13:13:14;;;;;;;2.60;1.63;;;22.00;47.10;;;;;;5071821;28;20399;-52
2023/10/12 13:15:47;;;;;;;7.23;1.27;;;22.00;47.40;;;;;;5071573;28;20548;-50
2023/10/12 13:18:15;;;;;;;3.70;1.23;;;22.00;47.40;;;;;;5071809;28;20506;-51
2023/10/12 13:20:46;;;;;;;1.30;0.90;;;22.00;47.80;;;;;;5071605;28;20441;-48
2023/10/12 13:23:13;;;;;;;2.17;1.00;;;22.00;47.20;;;;;;5071648;28;20438;-49
2023/10/12 13:25:39;;;;;;;3.23;1.40;;;22.00;47.20;;;;;;5071328;28;20413;-52
2023/10/12 13:28:05;;;;;;;1.27;0.70;;;22.10;47.20;;;;;;5071678;28;20541;-48
2023/10/12 13:30:33;;;;;;;4.30;2.20;;;22.10;47.40;;;;;;5071588;28;20494;-52
2023/10/12 13:33:00;;;;;;;3.83;2.00;;;22.10;47.30;;;;;;5071551;28;20667;-51
2023/10/12 13:35:31;;;;;;;1.20;0.73;;;22.10;46.90;;;;;;5071438;28;20435;-49
2023/10/12 13:38:03;;;;;;;3.00;1.70;;;22.20;47.40;;;;;;5071547;28;20476;-49
2023/10/12 13:40:30;;;;;;;3.33;1.80;;;22.10;46.80;;;;;;5071496;28;20415;-51
2023/10/12 13:43:07;;;;;;;11.00;2.33;;;22.20;46.90;;;;;;5071514;28;20410;-48
2023/10/12 13:45:35;;;;;;;2.30;1.27;;;22.10;46.70;;;;;;5071499;28;20468;-53
2023/10/12 13:48:02;;;;;;;1.60;1.03;;;22.10;46.50;;;;;;5071241;28;20446;-48
2023/10/12 13:50:28;;;;;;;2.53;1.47;;;22.10;46.40;;;;;;5071597;28;20410;-48
2023/10/12 13:52:53;;;;;;;2.20;1.40;;;22.10;46.60;;;;;;5071354;28;20413;-53
2023/10/12 13:55:19;;;;;;;2.00;1.30;;;22.10;46.20;;;;;;5071305;28;20181;-51
2023/10/12 13:57:55;;;;;;;2.00;1.17;;;22.10;46.60;;;;;;5072928;28;20228;-49
2023/10/12 14:00:25;;;;;;;3.27;1.60;;;22.10;46.50;;;;;;5075113;28;20199;-51
2023/10/12 14:02:56;;;;;;;5.43;1.00;;;22.00;46.30;;;;;;5075382;28;20415;-51
2023/10/12 14:05:29;;;;;;;1.60;1.00;;;22.00;46.60;;;;;;5074997;28;20970;-47
2023/10/12 14:08:01;;;;;;;3.47;1.23;;;22.00;46.40;;;;;;5074880;28;20547;-52
2023/10/12 14:10:27;;;;;;;2.30;1.43;;;22.10;46.70;;;;;;5074972;28;20406;-49
2023/10/12 14:12:54;;;;;;;2.90;1.33;;;22.00;46.60;;;;;;5074731;28;20406;-47
2023/10/12 14:15:27;;;;;;;3.47;1.73;;;22.00;46.50;;;;;;5074998;28;20406;-50
2023/10/12 14:17:56;;;;;;;3.60;1.80;;;22.10;46.20;;;;;;5074765;28;20525;-49
2023/10/12 14:20:26;;;;;;;1.30;0.60;;;22.00;46.30;;;;;;5075100;28;20484;-51
2023/10/12 14:22:57;;;;;;;3.40;2.13;;;22.00;45.40;;;;;;5074741;28;20410;-49
2023/10/12 14:25:30;;;;;;;5.37;1.10;;;22.00;45.50;;;;;;5074531;28;20414;-52
2023/10/12 14:27:59;;;;;;;2.53;1.33;;;23.00;46.40;;;;;;5074315;28;20466;-51
2023/10/12 14:30:28;;;;;;;1.27;0.83;;;22.00;45.80;;;;;;5074593;28;20494;-49
2023/10/12 14:33:02;;;;;;;8.57;1.37;;;22.00;45.80;;;;;;5074476;28;20406;-52
2023/10/12 14:35:30;;;;;;;1.60;0.87;;;22.10;46.00;;;;;;5074536;28;20438;-48
2023/10/12 14:37:57;;;;;;;3.00;1.80;;;22.10;45.90;;;;;;5074058;28;20426;-49
2023/10/12 14:40:31;;;;;;;2.30;1.43;;;22.20;45.80;;;;;;5074391;28;20407;-51
2023/10/12 14:43:10;;;;;;;4.97;3.50;;;22.20;45.80;;;;;;5074597;28;20802;-51
2023/10/12 14:45:38;;;;;;;2.30;1.13;;;22.20;45.70;;;;;;5074145;28;20407;-51
2023/10/12 14:48:10;;;;;;;3.70;1.73;;;22.10;45.50;;;;;;5074173;28;20818;-51
2023/10/12 14:50:49;;;;;;;2.40;0.60;;;22.10;45.80;;;;;;5074135;28;20796;-50
2023/10/12 14:53:27;;;;;;;1.70;1.33;;;22.20;46.10;;;;;;5074391;28;20411;-52
2023/10/12 14:55:54;;;;;;;1.53;1.13;;;22.10;45.50;;;;;;5073800;28;20536;-50
2023/10/12 14:58:21;;;;;;;1.40;1.10;;;22.20;45.50;;;;;;5074055;28;20778;-49
2023/10/12 15:00:47;;;;;;;4.90;1.30;;;22.10;45.80;;;;;;5074048;28;20407;-52
2023/10/12 15:03:21;;;;;;;3.27;1.23;;;22.20;45.50;;;;;;5074273;28;20419;-52
2023/10/12 15:05:53;;;;;;;1.80;1.27;;;22.20;45.50;;;;;;5073962;28;20442;-50
2023/10/12 15:08:25;;;;;;;2.37;0.93;;;22.20;45.20;;;;;;5073650;28;20450;-53
2023/10/12 15:10:54;;;;;;;1.60;1.43;;;22.20;45.40;;;;;;5073611;28;20751;-49
2023/10/12 15:13:22;;;;;;;2.70;1.53;;;22.20;45.50;;;;;;5073798;28;20407;-49
2023/10/12 15:15:49;;;;;;;1.50;0.80;;;22.20;45.60;;;;;;5073843;28;20415;-49
2023/10/12 15:18:17;;;;;;;1.90;1.07;;;22.30;45.40;;;;;;5074109;28;20472;-49
2023/10/12 15:20:44;;;;;;;1.80;1.17;;;22.30;45.20;;;;;;5074005;28;20498;-49
2023/10/12 15:23:14;;;;;;;2.50;1.23;;;22.20;45.00;;;;;;5073778;28;20790;-51
2023/10/12 15:25:40;;;;;;;2.90;1.60;;;22.30;45.30;;;;;;5073250;28;20407;-52
2023/10/12 15:28:06;;;;;;;4.57;1.60;;;22.30;45.80;;;;;;5073439;28;20577;-48
2023/10/12 15:30:33;;;;;;;4.23;1.50;;;22.30;45.40;;;;;;5073476;28;20674;-50
2023/10/12 15:32:59;;;;;;;2.33;1.27;;;22.20;45.20;;;;;;5073595;28;20490;-52